sensor_id;sensor_type;location;lat;lon;timestamp;P1;durP1;ratioP1;P2;durP2;ratioP2
40599;SDS011;26309;50.924;4.754;2023-04-29T00:00:10;75.05;;;43.65;;
40599;SDS011;26309;50.924;4.754;2023-04-29T00:02:36;80.10;;;44.97;;
40599;SDS011;26309;50.924;4.754;2023-04-29T00:05:02;78.55;;;43.85;;
40599;SDS011;26309;50.924;4.754;2023-04-29T00:07:29;76.45;;;41.72;;
40599;SDS011;26309;50.924;4.754;2023-04-29T00:09:59;80.70;;;42.05;;
40599;SDS011;26309;50.924;4.754;2023-04-29T00:12:25;68.28;;;40.28;;
40599;SDS011;26309;50.924;4.754;2023-04-29T00:14:52;73.28;;;40.58;;
40599;SDS011;26309;50.924;4.754;2023-04-29T00:17:18;71.40;;;38.63;;
40599;SDS011;26309;50.924;4.754;2023-04-29T00:19:46;68.38;;;38.92;;
40599;SDS011;26309;50.924;4.754;2023-04-29T00:22:12;63.35;;;37.92;;
40599;SDS011;26309;50.924;4.754;2023-04-29T00:24:38;68.57;;;39.38;;
40599;SDS011;26309;50.924;4.754;2023-04-29T00:27:04;56.72;;;35.90;;
40599;SDS011;26309;50.924;4.754;2023-04-29T00:29:30;59.85;;;35.42;;
40599;SDS011;26309;50.924;4.754;2023-04-29T00:31:56;58.78;;;33.15;;
40599;SDS011;26309;50.924;4.754;2023-04-29T00:34:22;53.78;;;33.42;;
40599;SDS011;26309;50.924;4.754;2023-04-29T00:36:48;60.95;;;35.08;;
40599;SDS011;26309;50.924;4.754;2023-04-29T00:39:14;62.28;;;34.83;;
40599;SDS011;26309;50.924;4.754;2023-04-29T00:41:40;62.08;;;34.13;;
40599;SDS011;26309;50.924;4.754;2023-04-29T00:44:06;62.60;;;35.72;;
40599;SDS011;26309;50.924;4.754;2023-04-29T00:46:32;61.75;;;35.33;;
40599;SDS011;26309;50.924;4.754;2023-04-29T00:48:58;63.72;;;36.10;;
40599;SDS011;26309;50.924;4.754;2023-04-29T00:51:25;61.22;;;35.00;;
40599;SDS011;26309;50.924;4.754;2023-04-29T00:53:52;64.03;;;36.30;;
40599;SDS011;26309;50.924;4.754;2023-04-29T00:56:18;60.63;;;35.63;;
40599;SDS011;26309;50.924;4.754;2023-04-29T00:58:45;64.00;;;36.72;;
40599;SDS011;26309;50.924;4.754;2023-04-29T01:01:15;65.28;;;37.10;;
40599;SDS011;26309;50.924;4.754;2023-04-29T01:03:41;63.72;;;36.55;;
40599;SDS011;26309;50.924;4.754;2023-04-29T01:12:25;63.20;;;37.13;;
40599;SDS011;26309;50.924;4.754;2023-04-29T01:15:09;65.03;;;38.35;;
40599;SDS011;26309;50.924;4.754;2023-04-29T01:17:55;69.30;;;37.85;;
40599;SDS011;26309;50.924;4.754;2023-04-29T01:20:27;67.75;;;38.33;;
40599;SDS011;26309;50.924;4.754;2023-04-29T01:22:55;70.45;;;38.15;;
40599;SDS011;26309;50.924;4.754;2023-04-29T01:25:20;62.00;;;35.92;;
40599;SDS011;26309;50.924;4.754;2023-04-29T01:30:40;67.70;;;38.17;;
40599;SDS011;26309;50.924;4.754;2023-04-29T01:38:51;61.95;;;36.13;;
40599;SDS011;26309;50.924;4.754;2023-04-29T01:41:33;65.00;;;34.78;;
40599;SDS011;26309;50.924;4.754;2023-04-29T01:44:01;62.83;;;35.38;;
40599;SDS011;26309;50.924;4.754;2023-04-29T01:46:30;66.38;;;37.70;;
40599;SDS011;26309;50.924;4.754;2023-04-29T01:48:56;69.05;;;38.08;;
40599;SDS011;26309;50.924;4.754;2023-04-29T01:51:22;67.63;;;38.08;;
40599;SDS011;26309;50.924;4.754;2023-04-29T01:53:48;69.95;;;41.45;;
40599;SDS011;26309;50.924;4.754;2023-04-29T01:56:14;71.22;;;42.72;;
40599;SDS011;26309;50.924;4.754;2023-04-29T01:58:40;77.03;;;41.75;;
40599;SDS011;26309;50.924;4.754;2023-04-29T02:01:06;69.80;;;42.55;;
40599;SDS011;26309;50.924;4.754;2023-04-29T02:03:34;79.05;;;44.55;;
40599;SDS011;26309;50.924;4.754;2023-04-29T02:06:00;75.38;;;43.22;;
40599;SDS011;26309;50.924;4.754;2023-04-29T02:08:26;68.32;;;42.25;;
40599;SDS011;26309;50.924;4.754;2023-04-29T02:10:56;66.47;;;38.83;;
40599;SDS011;26309;50.924;4.754;2023-04-29T02:13:23;65.65;;;39.88;;
40599;SDS011;26309;50.924;4.754;2023-04-29T02:15:49;65.88;;;39.78;;
40599;SDS011;26309;50.924;4.754;2023-04-29T02:18:15;58.72;;;37.50;;
40599;SDS011;26309;50.924;4.754;2023-04-29T02:20:41;55.38;;;34.72;;
40599;SDS011;26309;50.924;4.754;2023-04-29T02:23:09;56.05;;;35.40;;
40599;SDS011;26309;50.924;4.754;2023-04-29T02:25:35;54.73;;;33.63;;
40599;SDS011;26309;50.924;4.754;2023-04-29T02:28:01;52.72;;;33.88;;
40599;SDS011;26309;50.924;4.754;2023-04-29T02:30:27;48.78;;;33.83;;
40599;SDS011;26309;50.924;4.754;2023-04-29T02:32:52;49.97;;;33.60;;
40599;SDS011;26309;50.924;4.754;2023-04-29T02:35:19;54.70;;;33.55;;
40599;SDS011;26309;50.924;4.754;2023-04-29T02:37:45;52.03;;;33.50;;
40599;SDS011;26309;50.924;4.754;2023-04-29T02:40:11;51.80;;;35.22;;
40599;SDS011;26309;50.924;4.754;2023-04-29T02:42:37;57.27;;;37.47;;
40599;SDS011;26309;50.924;4.754;2023-04-29T02:45:04;50.05;;;33.42;;
40599;SDS011;26309;50.924;4.754;2023-04-29T02:47:31;52.33;;;34.10;;
40599;SDS011;26309;50.924;4.754;2023-04-29T02:49:57;51.03;;;34.40;;
40599;SDS011;26309;50.924;4.754;2023-04-29T02:52:23;48.13;;;32.73;;
40599;SDS011;26309;50.924;4.754;2023-04-29T02:54:48;35.50;;;25.40;;
40599;SDS011;26309;50.924;4.754;2023-04-29T02:57:14;30.65;;;22.80;;
40599;SDS011;26309;50.924;4.754;2023-04-29T02:59:40;34.92;;;23.90;;
40599;SDS011;26309;50.924;4.754;2023-04-29T03:02:06;36.15;;;25.23;;
40599;SDS011;26309;50.924;4.754;2023-04-29T03:04:32;41.13;;;28.33;;
40599;SDS011;26309;50.924;4.754;2023-04-29T03:06:57;43.80;;;29.17;;
40599;SDS011;26309;50.924;4.754;2023-04-29T03:09:23;36.97;;;27.27;;
40599;SDS011;26309;50.924;4.754;2023-04-29T03:11:49;40.23;;;29.00;;
40599;SDS011;26309;50.924;4.754;2023-04-29T03:14:15;41.63;;;29.65;;
40599;SDS011;26309;50.924;4.754;2023-04-29T03:16:41;41.85;;;30.55;;
40599;SDS011;26309;50.924;4.754;2023-04-29T03:19:07;43.35;;;29.27;;
40599;SDS011;26309;50.924;4.754;2023-04-29T03:21:36;39.45;;;28.98;;
40599;SDS011;26309;50.924;4.754;2023-04-29T03:24:01;41.70;;;28.00;;
40599;SDS011;26309;50.924;4.754;2023-04-29T03:26:27;39.88;;;28.35;;
40599;SDS011;26309;50.924;4.754;2023-04-29T03:28:53;40.50;;;28.80;;
40599;SDS011;26309;50.924;4.754;2023-04-29T03:31:19;43.17;;;30.35;;
40599;SDS011;26309;50.924;4.754;2023-04-29T03:33:46;44.90;;;29.15;;
40599;SDS011;26309;50.924;4.754;2023-04-29T03:36:12;43.45;;;29.63;;
40599;SDS011;26309;50.924;4.754;2023-04-29T03:38:39;43.08;;;29.95;;
40599;SDS011;26309;50.924;4.754;2023-04-29T03:41:05;47.88;;;30.52;;
40599;SDS011;26309;50.924;4.754;2023-04-29T03:43:31;42.92;;;31.38;;
40599;SDS011;26309;50.924;4.754;2023-04-29T03:45:57;46.88;;;31.05;;
40599;SDS011;26309;50.924;4.754;2023-04-29T03:48:23;50.33;;;31.27;;
40599;SDS011;26309;50.924;4.754;2023-04-29T03:50:49;45.78;;;30.40;;
40599;SDS011;26309;50.924;4.754;2023-04-29T03:53:15;43.58;;;30.90;;
40599;SDS011;26309;50.924;4.754;2023-04-29T03:55:41;42.38;;;27.88;;
40599;SDS011;26309;50.924;4.754;2023-04-29T03:58:07;41.47;;;29.10;;
40599;SDS011;26309;50.924;4.754;2023-04-29T04:00:33;49.92;;;31.83;;
40599;SDS011;26309;50.924;4.754;2023-04-29T04:02:59;48.90;;;32.25;;
40599;SDS011;26309;50.924;4.754;2023-04-29T04:05:24;52.00;;;32.63;;
40599;SDS011;26309;50.924;4.754;2023-04-29T04:07:51;57.13;;;35.17;;
40599;SDS011;26309;50.924;4.754;2023-04-29T04:10:17;66.13;;;36.78;;
40599;SDS011;26309;50.924;4.754;2023-04-29T04:12:43;68.95;;;37.38;;
40599;SDS011;26309;50.924;4.754;2023-04-29T04:15:09;70.87;;;38.43;;
40599;SDS011;26309;50.924;4.754;2023-04-29T04:17:35;67.63;;;37.53;;
40599;SDS011;26309;50.924;4.754;2023-04-29T04:20:01;68.90;;;39.97;;
40599;SDS011;26309;50.924;4.754;2023-04-29T04:22:27;69.80;;;40.17;;
40599;SDS011;26309;50.924;4.754;2023-04-29T04:24:53;65.73;;;39.87;;
40599;SDS011;26309;50.924;4.754;2023-04-29T04:27:19;70.27;;;39.83;;
40599;SDS011;26309;50.924;4.754;2023-04-29T04:29:45;72.30;;;40.20;;
40599;SDS011;26309;50.924;4.754;2023-04-29T04:32:11;66.28;;;39.75;;
40599;SDS011;26309;50.924;4.754;2023-04-29T04:34:37;73.63;;;40.20;;
40599;SDS011;26309;50.924;4.754;2023-04-29T04:37:06;75.15;;;38.83;;
40599;SDS011;26309;50.924;4.754;2023-04-29T04:39:32;68.03;;;38.67;;
40599;SDS011;26309;50.924;4.754;2023-04-29T04:41:58;59.97;;;35.47;;
40599;SDS011;26309;50.924;4.754;2023-04-29T04:44:24;62.25;;;35.53;;
40599;SDS011;26309;50.924;4.754;2023-04-29T04:46:50;60.78;;;36.25;;
40599;SDS011;26309;50.924;4.754;2023-04-29T04:49:16;57.60;;;35.70;;
40599;SDS011;26309;50.924;4.754;2023-04-29T04:51:45;58.70;;;35.58;;
40599;SDS011;26309;50.924;4.754;2023-04-29T04:54:11;58.23;;;35.33;;
40599;SDS011;26309;50.924;4.754;2023-04-29T04:56:37;58.92;;;35.10;;
40599;SDS011;26309;50.924;4.754;2023-04-29T04:59:03;59.92;;;36.13;;
40599;SDS011;26309;50.924;4.754;2023-04-29T05:01:32;60.53;;;36.13;;
40599;SDS011;26309;50.924;4.754;2023-04-29T05:03:58;59.20;;;36.88;;
40599;SDS011;26309;50.924;4.754;2023-04-29T05:06:24;58.78;;;34.63;;
40599;SDS011;26309;50.924;4.754;2023-04-29T05:08:50;57.75;;;36.03;;
40599;SDS011;26309;50.924;4.754;2023-04-29T05:11:16;58.13;;;36.33;;
40599;SDS011;26309;50.924;4.754;2023-04-29T05:13:43;60.67;;;36.88;;
40599;SDS011;26309;50.924;4.754;2023-04-29T05:16:09;63.13;;;36.28;;
40599;SDS011;26309;50.924;4.754;2023-04-29T05:18:35;61.30;;;36.00;;
40599;SDS011;26309;50.924;4.754;2023-04-29T05:21:01;61.60;;;36.03;;
40599;SDS011;26309;50.924;4.754;2023-04-29T05:23:33;55.63;;;36.42;;
40599;SDS011;26309;50.924;4.754;2023-04-29T05:25:59;71.45;;;38.25;;
40599;SDS011;26309;50.924;4.754;2023-04-29T05:28:25;62.58;;;37.03;;
40599;SDS011;26309;50.924;4.754;2023-04-29T05:30:50;69.55;;;38.78;;
40599;SDS011;26309;50.924;4.754;2023-04-29T05:33:19;61.63;;;37.30;;
40599;SDS011;26309;50.924;4.754;2023-04-29T05:35:48;67.75;;;39.28;;
40599;SDS011;26309;50.924;4.754;2023-04-29T05:38:16;65.70;;;37.92;;
40599;SDS011;26309;50.924;4.754;2023-04-29T05:40:43;63.92;;;37.83;;
40599;SDS011;26309;50.924;4.754;2023-04-29T05:43:09;62.72;;;37.70;;
40599;SDS011;26309;50.924;4.754;2023-04-29T05:45:35;63.28;;;37.65;;
40599;SDS011;26309;50.924;4.754;2023-04-29T05:48:01;61.17;;;38.20;;
40599;SDS011;26309;50.924;4.754;2023-04-29T05:50:27;66.90;;;39.10;;
40599;SDS011;26309;50.924;4.754;2023-04-29T05:52:52;60.53;;;38.13;;
40599;SDS011;26309;50.924;4.754;2023-04-29T05:55:20;61.35;;;37.85;;
40599;SDS011;26309;50.924;4.754;2023-04-29T05:57:46;57.85;;;37.05;;
40599;SDS011;26309;50.924;4.754;2023-04-29T06:00:12;58.70;;;35.50;;
40599;SDS011;26309;50.924;4.754;2023-04-29T06:02:38;54.40;;;35.83;;
40599;SDS011;26309;50.924;4.754;2023-04-29T06:05:07;60.05;;;35.35;;
40599;SDS011;26309;50.924;4.754;2023-04-29T06:07:34;57.47;;;36.65;;
40599;SDS011;26309;50.924;4.754;2023-04-29T06:10:00;55.28;;;36.10;;
40599;SDS011;26309;50.924;4.754;2023-04-29T06:12:26;59.13;;;37.15;;
40599;SDS011;26309;50.924;4.754;2023-04-29T06:14:52;62.72;;;38.35;;
40599;SDS011;26309;50.924;4.754;2023-04-29T06:17:18;58.53;;;36.77;;
40599;SDS011;26309;50.924;4.754;2023-04-29T06:19:44;58.70;;;37.75;;
40599;SDS011;26309;50.924;4.754;2023-04-29T06:22:09;56.60;;;36.75;;
40599;SDS011;26309;50.924;4.754;2023-04-29T06:24:35;63.70;;;38.43;;
40599;SDS011;26309;50.924;4.754;2023-04-29T06:27:01;67.75;;;38.17;;
40599;SDS011;26309;50.924;4.754;2023-04-29T06:29:28;70.05;;;38.97;;
40599;SDS011;26309;50.924;4.754;2023-04-29T06:31:54;63.93;;;39.60;;
40599;SDS011;26309;50.924;4.754;2023-04-29T06:34:20;64.07;;;37.72;;
40599;SDS011;26309;50.924;4.754;2023-04-29T06:36:46;51.75;;;34.60;;
40599;SDS011;26309;50.924;4.754;2023-04-29T06:39:12;53.45;;;34.08;;
40599;SDS011;26309;50.924;4.754;2023-04-29T06:41:38;47.63;;;33.20;;
40599;SDS011;26309;50.924;4.754;2023-04-29T06:44:04;54.08;;;33.15;;
40599;SDS011;26309;50.924;4.754;2023-04-29T06:46:30;56.33;;;32.90;;
40599;SDS011;26309;50.924;4.754;2023-04-29T06:48:56;55.22;;;33.03;;
40599;SDS011;26309;50.924;4.754;2023-04-29T06:51:22;48.65;;;31.35;;
40599;SDS011;26309;50.924;4.754;2023-04-29T06:53:49;51.35;;;31.27;;
40599;SDS011;26309;50.924;4.754;2023-04-29T06:56:15;46.40;;;31.60;;
40599;SDS011;26309;50.924;4.754;2023-04-29T06:58:40;47.38;;;31.25;;
40599;SDS011;26309;50.924;4.754;2023-04-29T07:01:06;41.20;;;28.75;;
40599;SDS011;26309;50.924;4.754;2023-04-29T07:03:33;45.75;;;31.13;;
40599;SDS011;26309;50.924;4.754;2023-04-29T07:05:59;49.85;;;31.58;;
40599;SDS011;26309;50.924;4.754;2023-04-29T07:08:25;53.88;;;30.92;;
40599;SDS011;26309;50.924;4.754;2023-04-29T07:10:56;51.50;;;30.67;;
40599;SDS011;26309;50.924;4.754;2023-04-29T07:13:23;37.38;;;29.33;;
40599;SDS011;26309;50.924;4.754;2023-04-29T07:15:49;44.28;;;30.33;;
40599;SDS011;26309;50.924;4.754;2023-04-29T07:18:15;43.70;;;30.95;;
40599;SDS011;26309;50.924;4.754;2023-04-29T07:20:42;44.28;;;29.60;;
40599;SDS011;26309;50.924;4.754;2023-04-29T07:23:08;46.17;;;31.15;;
40599;SDS011;26309;50.924;4.754;2023-04-29T07:25:34;48.38;;;29.67;;
40599;SDS011;26309;50.924;4.754;2023-04-29T07:28:00;48.53;;;30.48;;
40599;SDS011;26309;50.924;4.754;2023-04-29T07:30:26;45.17;;;29.73;;
40599;SDS011;26309;50.924;4.754;2023-04-29T07:32:52;40.72;;;27.80;;
40599;SDS011;26309;50.924;4.754;2023-04-29T07:35:18;45.60;;;27.60;;
40599;SDS011;26309;50.924;4.754;2023-04-29T07:37:44;40.83;;;28.35;;
40599;SDS011;26309;50.924;4.754;2023-04-29T07:40:10;42.22;;;28.42;;
40599;SDS011;26309;50.924;4.754;2023-04-29T07:42:37;40.80;;;27.58;;
40599;SDS011;26309;50.924;4.754;2023-04-29T07:45:03;39.83;;;25.40;;
40599;SDS011;26309;50.924;4.754;2023-04-29T07:47:29;34.63;;;25.40;;
40599;SDS011;26309;50.924;4.754;2023-04-29T07:49:55;37.10;;;26.50;;
40599;SDS011;26309;50.924;4.754;2023-04-29T07:52:21;35.80;;;25.65;;
40599;SDS011;26309;50.924;4.754;2023-04-29T07:54:47;37.88;;;26.30;;
40599;SDS011;26309;50.924;4.754;2023-04-29T07:57:14;38.03;;;25.33;;
40599;SDS011;26309;50.924;4.754;2023-04-29T07:59:40;38.85;;;24.63;;
40599;SDS011;26309;50.924;4.754;2023-04-29T08:02:05;37.95;;;24.15;;
40599;SDS011;26309;50.924;4.754;2023-04-29T08:04:31;38.65;;;26.70;;
40599;SDS011;26309;50.924;4.754;2023-04-29T08:06:57;43.30;;;26.88;;
40599;SDS011;26309;50.924;4.754;2023-04-29T08:09:23;36.85;;;24.67;;
40599;SDS011;26309;50.924;4.754;2023-04-29T08:11:49;37.13;;;25.70;;
40599;SDS011;26309;50.924;4.754;2023-04-29T08:14:15;29.73;;;23.33;;
40599;SDS011;26309;50.924;4.754;2023-04-29T08:16:41;35.90;;;25.20;;
40599;SDS011;26309;50.924;4.754;2023-04-29T08:19:07;37.00;;;26.08;;
40599;SDS011;26309;50.924;4.754;2023-04-29T08:21:33;32.85;;;24.60;;
40599;SDS011;26309;50.924;4.754;2023-04-29T08:23:59;37.83;;;24.63;;
40599;SDS011;26309;50.924;4.754;2023-04-29T08:26:25;37.33;;;25.05;;
40599;SDS011;26309;50.924;4.754;2023-04-29T08:28:51;35.95;;;26.13;;
40599;SDS011;26309;50.924;4.754;2023-04-29T08:31:17;32.05;;;23.55;;
40599;SDS011;26309;50.924;4.754;2023-04-29T08:33:44;32.97;;;24.83;;
40599;SDS011;26309;50.924;4.754;2023-04-29T08:36:14;35.13;;;24.02;;
40599;SDS011;26309;50.924;4.754;2023-04-29T08:38:40;34.15;;;23.35;;
40599;SDS011;26309;50.924;4.754;2023-04-29T08:41:14;32.85;;;22.88;;
40599;SDS011;26309;50.924;4.754;2023-04-29T08:43:41;31.88;;;23.27;;
40599;SDS011;26309;50.924;4.754;2023-04-29T08:46:06;31.83;;;23.25;;
40599;SDS011;26309;50.924;4.754;2023-04-29T08:48:33;34.72;;;24.45;;
40599;SDS011;26309;50.924;4.754;2023-04-29T08:51:01;38.78;;;24.17;;
40599;SDS011;26309;50.924;4.754;2023-04-29T08:53:27;35.97;;;24.50;;
40599;SDS011;26309;50.924;4.754;2023-04-29T08:55:54;37.45;;;24.25;;
40599;SDS011;26309;50.924;4.754;2023-04-29T08:58:21;39.03;;;24.58;;
40599;SDS011;26309;50.924;4.754;2023-04-29T09:00:50;35.80;;;24.35;;
40599;SDS011;26309;50.924;4.754;2023-04-29T09:03:26;34.20;;;23.55;;
40599;SDS011;26309;50.924;4.754;2023-04-29T09:06:05;30.65;;;22.33;;
40599;SDS011;26309;50.924;4.754;2023-04-29T09:08:34;33.38;;;22.67;;
40599;SDS011;26309;50.924;4.754;2023-04-29T09:11:01;31.23;;;22.63;;
40599;SDS011;26309;50.924;4.754;2023-04-29T09:13:29;37.63;;;23.60;;
40599;SDS011;26309;50.924;4.754;2023-04-29T09:15:56;32.88;;;23.85;;
40599;SDS011;26309;50.924;4.754;2023-04-29T09:18:41;32.85;;;22.02;;
40599;SDS011;26309;50.924;4.754;2023-04-29T09:23:42;29.55;;;22.45;;
40599;SDS011;26309;50.924;4.754;2023-04-29T09:26:08;31.20;;;22.55;;
40599;SDS011;26309;50.924;4.754;2023-04-29T09:28:34;34.15;;;23.58;;
40599;SDS011;26309;50.924;4.754;2023-04-29T09:31:01;34.40;;;22.33;;
40599;SDS011;26309;50.924;4.754;2023-04-29T09:33:44;31.83;;;23.05;;
40599;SDS011;26309;50.924;4.754;2023-04-29T09:36:34;32.33;;;23.40;;
40599;SDS011;26309;50.924;4.754;2023-04-29T09:39:02;31.30;;;21.42;;
40599;SDS011;26309;50.924;4.754;2023-04-29T09:44:21;33.85;;;23.10;;
40599;SDS011;26309;50.924;4.754;2023-04-29T09:46:55;29.80;;;21.20;;
40599;SDS011;26309;50.924;4.754;2023-04-29T09:49:34;27.88;;;21.20;;
40599;SDS011;26309;50.924;4.754;2023-04-29T09:52:04;29.52;;;19.95;;
40599;SDS011;26309;50.924;4.754;2023-04-29T09:54:34;28.77;;;20.27;;
40599;SDS011;26309;50.924;4.754;2023-04-29T09:57:03;28.45;;;20.42;;
40599;SDS011;26309;50.924;4.754;2023-04-29T09:59:33;26.25;;;19.27;;
40599;SDS011;26309;50.924;4.754;2023-04-29T10:02:00;33.40;;;21.05;;
40599;SDS011;26309;50.924;4.754;2023-04-29T10:04:34;28.38;;;19.98;;
40599;SDS011;26309;50.924;4.754;2023-04-29T10:07:04;28.00;;;20.55;;
40599;SDS011;26309;50.924;4.754;2023-04-29T10:09:31;28.60;;;20.08;;
40599;SDS011;26309;50.924;4.754;2023-04-29T10:12:08;25.48;;;18.35;;
40599;SDS011;26309;50.924;4.754;2023-04-29T10:14:41;25.75;;;19.02;;
40599;SDS011;26309;50.924;4.754;2023-04-29T10:17:13;29.10;;;20.25;;
40599;SDS011;26309;50.924;4.754;2023-04-29T10:19:57;29.25;;;21.13;;
40599;SDS011;26309;50.924;4.754;2023-04-29T10:22:35;29.17;;;20.98;;
40599;SDS011;26309;50.924;4.754;2023-04-29T10:25:14;26.00;;;19.58;;
40599;SDS011;26309;50.924;4.754;2023-04-29T10:27:41;29.45;;;19.67;;
40599;SDS011;26309;50.924;4.754;2023-04-29T10:30:12;31.40;;;21.80;;
40599;SDS011;26309;50.924;4.754;2023-04-29T10:32:39;27.80;;;21.05;;
40599;SDS011;26309;50.924;4.754;2023-04-29T10:35:10;28.27;;;20.02;;
40599;SDS011;26309;50.924;4.754;2023-04-29T10:37:37;25.52;;;19.85;;
40599;SDS011;26309;50.924;4.754;2023-04-29T10:45:21;24.92;;;20.08;;
40599;SDS011;26309;50.924;4.754;2023-04-29T10:53:18;26.40;;;19.92;;
40599;SDS011;26309;50.924;4.754;2023-04-29T10:55:47;26.83;;;20.00;;
40599;SDS011;26309;50.924;4.754;2023-04-29T11:01:12;26.48;;;20.17;;
40599;SDS011;26309;50.924;4.754;2023-04-29T11:04:23;24.45;;;20.38;;
40599;SDS011;26309;50.924;4.754;2023-04-29T11:09:03;27.17;;;19.42;;
40599;SDS011;26309;50.924;4.754;2023-04-29T11:16:56;22.75;;;19.05;;
40599;SDS011;26309;50.924;4.754;2023-04-29T11:19:39;22.48;;;18.10;;
40599;SDS011;26309;50.924;4.754;2023-04-29T11:24:56;23.45;;;18.63;;
40599;SDS011;26309;50.924;4.754;2023-04-29T11:27:34;23.80;;;18.40;;
40599;SDS011;26309;50.924;4.754;2023-04-29T11:30:02;23.80;;;18.02;;
40599;SDS011;26309;50.924;4.754;2023-04-29T11:32:31;25.38;;;18.15;;
40599;SDS011;26309;50.924;4.754;2023-04-29T11:35:11;26.63;;;18.35;;
40599;SDS011;26309;50.924;4.754;2023-04-29T11:37:42;24.25;;;18.58;;
40599;SDS011;26309;50.924;4.754;2023-04-29T11:40:09;20.67;;;17.20;;
40599;SDS011;26309;50.924;4.754;2023-04-29T11:42:41;23.58;;;17.80;;
40599;SDS011;26309;50.924;4.754;2023-04-29T11:45:09;23.55;;;18.10;;
40599;SDS011;26309;50.924;4.754;2023-04-29T11:47:36;23.52;;;17.48;;
40599;SDS011;26309;50.924;4.754;2023-04-29T11:50:07;19.65;;;16.02;;
40599;SDS011;26309;50.924;4.754;2023-04-29T11:52:35;20.23;;;15.40;;
40599;SDS011;26309;50.924;4.754;2023-04-29T11:55:03;20.65;;;16.30;;
40599;SDS011;26309;50.924;4.754;2023-04-29T11:57:30;20.20;;;16.33;;
40599;SDS011;26309;50.924;4.754;2023-04-29T11:59:57;21.30;;;16.08;;
40599;SDS011;26309;50.924;4.754;2023-04-29T12:02:30;20.70;;;15.70;;
40599;SDS011;26309;50.924;4.754;2023-04-29T12:04:57;20.15;;;15.00;;
40599;SDS011;26309;50.924;4.754;2023-04-29T12:07:25;19.13;;;15.13;;
40599;SDS011;26309;50.924;4.754;2023-04-29T12:09:51;20.52;;;16.15;;
40599;SDS011;26309;50.924;4.754;2023-04-29T12:12:18;21.23;;;15.25;;
40599;SDS011;26309;50.924;4.754;2023-04-29T12:14:45;20.70;;;15.52;;
40599;SDS011;26309;50.924;4.754;2023-04-29T12:17:11;19.40;;;14.35;;
40599;SDS011;26309;50.924;4.754;2023-04-29T12:19:38;18.80;;;15.02;;
40599;SDS011;26309;50.924;4.754;2023-04-29T12:22:05;20.33;;;15.05;;
40599;SDS011;26309;50.924;4.754;2023-04-29T12:24:33;16.08;;;13.90;;
40599;SDS011;26309;50.924;4.754;2023-04-29T12:27:02;17.70;;;14.30;;
40599;SDS011;26309;50.924;4.754;2023-04-29T12:29:32;22.42;;;15.45;;
40599;SDS011;26309;50.924;4.754;2023-04-29T12:32:00;17.80;;;14.10;;
40599;SDS011;26309;50.924;4.754;2023-04-29T12:34:30;17.40;;;14.00;;
40599;SDS011;26309;50.924;4.754;2023-04-29T12:37:00;18.25;;;14.27;;
40599;SDS011;26309;50.924;4.754;2023-04-29T12:39:26;14.82;;;12.50;;
40599;SDS011;26309;50.924;4.754;2023-04-29T12:41:56;15.52;;;12.27;;
40599;SDS011;26309;50.924;4.754;2023-04-29T12:44:23;15.63;;;12.50;;
40599;SDS011;26309;50.924;4.754;2023-04-29T12:46:49;15.98;;;12.82;;
40599;SDS011;26309;50.924;4.754;2023-04-29T12:49:19;19.45;;;12.50;;
40599;SDS011;26309;50.924;4.754;2023-04-29T12:51:48;16.52;;;13.38;;
40599;SDS011;26309;50.924;4.754;2023-04-29T12:54:14;17.38;;;14.52;;
40599;SDS011;26309;50.924;4.754;2023-04-29T12:56:40;16.80;;;13.95;;
40599;SDS011;26309;50.924;4.754;2023-04-29T12:59:07;14.50;;;12.52;;
40599;SDS011;26309;50.924;4.754;2023-04-29T13:01:34;14.45;;;12.63;;
40599;SDS011;26309;50.924;4.754;2023-04-29T13:04:00;17.40;;;12.48;;
40599;SDS011;26309;50.924;4.754;2023-04-29T13:06:26;17.92;;;12.75;;
40599;SDS011;26309;50.924;4.754;2023-04-29T13:08:52;17.35;;;12.32;;
40599;SDS011;26309;50.924;4.754;2023-04-29T13:11:19;17.92;;;14.98;;
40599;SDS011;26309;50.924;4.754;2023-04-29T13:13:44;16.15;;;12.25;;
40599;SDS011;26309;50.924;4.754;2023-04-29T13:16:12;14.25;;;12.07;;
40599;SDS011;26309;50.924;4.754;2023-04-29T13:18:38;13.60;;;12.13;;
40599;SDS011;26309;50.924;4.754;2023-04-29T13:21:04;15.32;;;12.48;;
40599;SDS011;26309;50.924;4.754;2023-04-29T13:23:29;16.40;;;11.98;;
40599;SDS011;26309;50.924;4.754;2023-04-29T13:25:55;15.70;;;12.30;;
40599;SDS011;26309;50.924;4.754;2023-04-29T13:28:21;15.60;;;12.27;;
40599;SDS011;26309;50.924;4.754;2023-04-29T13:30:47;16.15;;;12.07;;
40599;SDS011;26309;50.924;4.754;2023-04-29T13:33:14;15.00;;;12.35;;
40599;SDS011;26309;50.924;4.754;2023-04-29T13:35:40;14.48;;;12.82;;
40599;SDS011;26309;50.924;4.754;2023-04-29T13:38:07;17.73;;;12.57;;
40599;SDS011;26309;50.924;4.754;2023-04-29T13:40:33;15.93;;;12.18;;
40599;SDS011;26309;50.924;4.754;2023-04-29T13:42:59;14.27;;;11.85;;
40599;SDS011;26309;50.924;4.754;2023-04-29T13:45:24;14.40;;;12.07;;
40599;SDS011;26309;50.924;4.754;2023-04-29T13:47:50;18.85;;;12.73;;
40599;SDS011;26309;50.924;4.754;2023-04-29T13:50:16;15.38;;;11.65;;
40599;SDS011;26309;50.924;4.754;2023-04-29T13:52:42;16.38;;;12.20;;
40599;SDS011;26309;50.924;4.754;2023-04-29T13:55:10;13.30;;;11.88;;
40599;SDS011;26309;50.924;4.754;2023-04-29T13:57:36;13.55;;;12.00;;
40599;SDS011;26309;50.924;4.754;2023-04-29T14:00:02;18.73;;;13.23;;
40599;SDS011;26309;50.924;4.754;2023-04-29T14:02:28;14.57;;;13.02;;
40599;SDS011;26309;50.924;4.754;2023-04-29T14:04:54;15.63;;;12.27;;
40599;SDS011;26309;50.924;4.754;2023-04-29T14:07:20;16.80;;;13.73;;
40599;SDS011;26309;50.924;4.754;2023-04-29T14:09:47;15.05;;;12.52;;
40599;SDS011;26309;50.924;4.754;2023-04-29T14:12:13;16.90;;;13.20;;
40599;SDS011;26309;50.924;4.754;2023-04-29T14:14:39;16.48;;;11.95;;
40599;SDS011;26309;50.924;4.754;2023-04-29T14:17:05;15.65;;;12.48;;
40599;SDS011;26309;50.924;4.754;2023-04-29T14:19:31;16.42;;;12.02;;
40599;SDS011;26309;50.924;4.754;2023-04-29T14:21:57;16.88;;;13.98;;
40599;SDS011;26309;50.924;4.754;2023-04-29T14:24:23;15.02;;;12.55;;
40599;SDS011;26309;50.924;4.754;2023-04-29T14:26:48;19.45;;;13.05;;
40599;SDS011;26309;50.924;4.754;2023-04-29T14:29:14;17.65;;;12.80;;
40599;SDS011;26309;50.924;4.754;2023-04-29T14:31:40;14.82;;;12.70;;
40599;SDS011;26309;50.924;4.754;2023-04-29T14:34:06;14.13;;;11.75;;
40599;SDS011;26309;50.924;4.754;2023-04-29T14:36:32;14.13;;;11.15;;
40599;SDS011;26309;50.924;4.754;2023-04-29T14:38:58;13.13;;;11.18;;
40599;SDS011;26309;50.924;4.754;2023-04-29T14:41:25;13.02;;;11.65;;
40599;SDS011;26309;50.924;4.754;2023-04-29T14:43:52;12.88;;;11.27;;
40599;SDS011;26309;50.924;4.754;2023-04-29T14:46:18;14.23;;;10.77;;
40599;SDS011;26309;50.924;4.754;2023-04-29T14:48:44;15.73;;;10.70;;
40599;SDS011;26309;50.924;4.754;2023-04-29T14:51:10;13.45;;;10.30;;
40599;SDS011;26309;50.924;4.754;2023-04-29T14:53:36;11.70;;;9.75;;
40599;SDS011;26309;50.924;4.754;2023-04-29T14:56:03;14.93;;;10.13;;
40599;SDS011;26309;50.924;4.754;2023-04-29T14:58:29;14.15;;;9.43;;
40599;SDS011;26309;50.924;4.754;2023-04-29T15:00:55;11.68;;;10.30;;
40599;SDS011;26309;50.924;4.754;2023-04-29T15:03:21;11.40;;;9.70;;
40599;SDS011;26309;50.924;4.754;2023-04-29T15:05:47;13.45;;;10.32;;